createdAt,value
2022-10-01T00:00:29.435Z,10.64
2022-10-01T00:01:01.540Z,10.65
2022-10-01T00:01:34.101Z,10.64
2022-10-01T00:02:07.327Z,10.64
2022-10-01T00:02:39.815Z,10.64
2022-10-01T00:03:11.255Z,10.63
2022-10-01T00:03:43.334Z,10.62
2022-10-01T00:04:14.630Z,10.62
2022-10-01T00:04:46.002Z,10.61
2022-10-01T00:05:17.637Z,10.62
2022-10-01T00:06:10.297Z,10.61
2022-10-01T00:06:41.640Z,10.60
2022-10-01T00:07:15.099Z,10.62
2022-10-01T00:07:47.242Z,10.61
2022-10-01T00:08:18.556Z,10.62
2022-10-01T00:08:50.649Z,10.63
2022-10-01T00:09:21.972Z,10.62
2022-10-01T00:09:53.272Z,10.60
2022-10-01T00:10:25.492Z,10.58
2022-10-01T00:10:58.059Z,10.61
2022-10-01T00:11:29.806Z,10.59
2022-10-01T00:12:01.278Z,10.57
2022-10-01T00:12:32.883Z,10.58
2022-10-01T00:13:04.247Z,10.53
2022-10-01T00:13:36.387Z,10.52
2022-10-01T00:14:08.306Z,10.53
2022-10-01T00:14:39.671Z,10.55
2022-10-01T00:15:13.576Z,10.56
2022-10-01T00:15:45.089Z,10.58
2022-10-01T00:16:20.179Z,10.56
2022-10-01T00:16:51.717Z,10.56
2022-10-01T00:17:23.127Z,10.58
2022-10-01T00:17:54.688Z,10.58
2022-10-01T00:18:26.071Z,10.58
2022-10-01T00:18:57.989Z,10.58
2022-10-01T00:19:29.463Z,10.56
2022-10-01T00:20:01.084Z,10.56
2022-10-01T00:20:32.397Z,10.55
2022-10-01T00:21:18.100Z,10.57
2022-10-01T00:21:49.663Z,10.57
2022-10-01T00:22:21.040Z,10.57
2022-10-01T00:22:52.814Z,10.57
2022-10-01T00:23:24.129Z,10.54
2022-10-01T00:24:04.656Z,10.57
2022-10-01T00:24:37.601Z,10.56
2022-10-01T00:25:09.069Z,10.53
2022-10-01T00:25:41.064Z,10.56
2022-10-01T00:26:25.443Z,10.53
2022-10-01T00:26:57.766Z,10.56
2022-10-01T00:27:29.859Z,10.56
2022-10-01T00:28:01.582Z,10.54
2022-10-01T00:28:32.915Z,10.56
2022-10-01T00:29:07.572Z,10.57
2022-10-01T00:29:40.621Z,10.56
2022-10-01T00:30:12.386Z,10.56
2022-10-01T00:30:48.163Z,10.56
2022-10-01T00:31:19.579Z,10.54
2022-10-01T00:31:51.056Z,10.53
2022-10-01T00:32:22.991Z,10.53
2022-10-01T00:32:54.996Z,10.52
2022-10-01T00:33:26.381Z,10.53
2022-10-01T00:34:02.540Z,10.53
2022-10-01T00:34:33.865Z,10.51
2022-10-01T00:35:09.407Z,10.52
2022-10-01T00:35:40.732Z,10.51
2022-10-01T00:36:12.109Z,10.50
2022-10-01T00:36:43.488Z,10.53
2022-10-01T00:37:15.501Z,10.52
2022-10-01T00:37:49.182Z,10.53
2022-10-01T00:38:20.577Z,10.53
2022-10-01T00:38:52.001Z,10.53
2022-10-01T00:39:23.689Z,10.50
2022-10-01T00:39:55.140Z,10.51
2022-10-01T00:40:26.545Z,10.51
2022-10-01T00:40:58.502Z,10.52
2022-10-01T00:41:33.164Z,10.51
2022-10-01T00:42:20.493Z,10.49
2022-10-01T00:42:51.838Z,10.49
2022-10-01T00:43:29.250Z,10.51
2022-10-01T00:44:32.322Z,10.51
2022-10-01T00:45:04.016Z,10.50
2022-10-01T00:45:35.963Z,10.50
2022-10-01T00:46:15.660Z,10.51
2022-10-01T00:46:47.163Z,10.50
2022-10-01T00:47:37.085Z,10.51
2022-10-01T00:48:08.407Z,10.50
2022-10-01T00:48:47.935Z,10.50
2022-10-01T00:49:26.692Z,10.49
2022-10-01T00:50:10.492Z,10.51
2022-10-01T00:50:42.111Z,10.50
2022-10-01T00:51:13.957Z,10.50
2022-10-01T00:51:52.311Z,10.48
2022-10-01T00:52:28.924Z,10.47
2022-10-01T00:53:04.876Z,10.48
2022-10-01T00:53:37.752Z,10.48
2022-10-01T00:54:13.641Z,10.48
2022-10-01T00:54:50.721Z,10.45
2022-10-01T00:55:37.654Z,10.47
2022-10-01T00:56:09.068Z,10.46
2022-10-01T00:56:42.956Z,10.47
2022-10-01T00:57:18.617Z,10.48
2022-10-01T00:57:50.757Z,10.43
2022-10-01T00:58:24.073Z,10.42
2022-10-01T00:58:55.983Z,10.46
2022-10-01T00:59:28.901Z,10.46
2022-10-01T01:00:04.766Z,10.44
2022-10-01T01:00:37.830Z,10.45
2022-10-01T01:01:10.192Z,10.43
2022-10-01T01:01:42.039Z,10.45
2022-10-01T01:02:13.490Z,10.44
2022-10-01T01:02:44.980Z,10.46
2022-10-01T01:03:16.895Z,10.45
2022-10-01T01:03:48.615Z,10.43
2022-10-01T01:04:20.162Z,10.41
2022-10-01T01:04:51.519Z,10.43
2022-10-01T01:05:23.130Z,10.45
2022-10-01T01:05:54.501Z,10.42
2022-10-01T01:06:25.873Z,10.44
2022-10-01T01:06:59.890Z,10.44
2022-10-01T01:07:33.615Z,10.44
2022-10-01T01:08:06.097Z,10.43
2022-10-01T01:08:37.559Z,10.43
2022-10-01T01:09:09.181Z,10.43
2022-10-01T01:09:48.223Z,10.45
2022-10-01T01:10:30.072Z,10.44
2022-10-01T01:11:16.117Z,10.47
2022-10-01T01:11:58.356Z,10.46
2022-10-01T01:12:45.248Z,10.46
2022-10-01T01:13:37.940Z,10.48
2022-10-01T01:14:14.470Z,10.46
2022-10-01T01:15:21.544Z,10.48
2022-10-01T01:16:06.098Z,10.48
2022-10-01T01:16:47.265Z,10.48
2022-10-01T01:17:39.459Z,10.48
2022-10-01T01:18:18.900Z,10.48
2022-10-01T01:18:56.771Z,10.48
2022-10-01T01:19:52.544Z,10.49
2022-10-01T01:20:45.365Z,10.48
2022-10-01T01:21:24.547Z,10.49
2022-10-01T01:22:02.977Z,10.48
2022-10-01T01:22:39.127Z,10.48
2022-10-01T01:23:16.289Z,10.48
2022-10-01T01:24:13.057Z,10.47
2022-10-01T01:24:56.107Z,10.48
2022-10-01T01:25:40.879Z,10.46
2022-10-01T01:26:31.529Z,10.47
2022-10-01T01:27:29.396Z,10.48
2022-10-01T01:28:18.943Z,10.47
2022-10-01T01:29:01.136Z,10.49
2022-10-01T01:29:50.047Z,10.48
2022-10-01T01:30:21.438Z,10.47
2022-10-01T01:30:56.897Z,10.46
2022-10-01T01:31:36.223Z,10.47
2022-10-01T01:32:18.205Z,10.46
2022-10-01T01:33:12.804Z,10.46
2022-10-01T01:33:47.971Z,10.45
2022-10-01T01:34:24.326Z,10.44
2022-10-01T01:35:02.096Z,10.45
2022-10-01T01:35:39.345Z,10.46
2022-10-01T01:36:16.251Z,10.46
2022-10-01T01:36:58.505Z,10.48
2022-10-01T01:37:37.901Z,10.47
2022-10-01T01:38:14.458Z,10.47
2022-10-01T01:38:54.972Z,10.46
2022-10-01T01:39:29.819Z,10.46
2022-10-01T01:40:03.558Z,10.44
2022-10-01T01:40:37.793Z,10.46
2022-10-01T01:41:11.493Z,10.44
2022-10-01T01:41:49.939Z,10.43
2022-10-01T01:42:36.704Z,10.46
2022-10-01T01:43:13.956Z,10.47
2022-10-01T01:43:49.538Z,10.45
2022-10-01T01:44:25.723Z,10.44
2022-10-01T01:45:00.908Z,10.47
2022-10-01T01:45:34.259Z,10.45
2022-10-01T01:46:10.296Z,10.46
2022-10-01T01:46:46.172Z,10.47
2022-10-01T01:47:20.184Z,10.47
2022-10-01T01:47:57.680Z,10.45
2022-10-01T01:48:31.084Z,10.48
2022-10-01T01:49:05.210Z,10.48
2022-10-01T01:49:38.662Z,10.46
2022-10-01T01:50:13.718Z,10.47
2022-10-01T01:50:52.492Z,10.49
2022-10-01T01:51:41.097Z,10.50
2022-10-01T01:52:15.909Z,10.49
2022-10-01T01:52:47.440Z,10.50
2022-10-01T01:53:20.140Z,10.49
2022-10-01T01:53:51.929Z,10.48
2022-10-01T01:54:23.291Z,10.50
2022-10-01T01:54:55.394Z,10.49
2022-10-01T01:55:29.933Z,10.48
2022-10-01T01:56:01.962Z,10.47
2022-10-01T01:56:34.419Z,10.49
2022-10-01T01:57:06.777Z,10.48
2022-10-01T01:57:43.506Z,10.51
2022-10-01T01:58:16.954Z,10.50
2022-10-01T01:58:49.263Z,10.50
2022-10-01T01:59:20.720Z,10.47
2022-10-01T01:59:54.170Z,10.48
2022-10-01T02:00:25.612Z,10.47
2022-10-01T02:00:56.955Z,10.47
2022-10-01T02:01:41.958Z,10.50
2022-10-01T02:02:25.625Z,10.51
2022-10-01T02:02:57.935Z,10.50
2022-10-01T02:03:30.700Z,10.50
2022-10-01T02:04:43.631Z,10.50
2022-10-01T02:05:19.935Z,10.49
2022-10-01T02:06:19.010Z,10.51
2022-10-01T02:07:03.212Z,10.50
2022-10-01T02:08:15.339Z,10.50
2022-10-01T02:08:57.815Z,10.51
2022-10-01T02:09:41.746Z,10.50
2022-10-01T02:10:45.088Z,10.51
2022-10-01T02:11:23.149Z,10.50
2022-10-01T02:12:30.208Z,10.51
2022-10-01T02:13:13.757Z,10.52
2022-10-01T02:13:45.031Z,10.53
2022-10-01T02:14:35.566Z,10.53
2022-10-01T02:15:26.032Z,10.53
2022-10-01T02:16:05.005Z,10.53
2022-10-01T02:17:01.339Z,10.53
2022-10-01T02:17:50.602Z,10.53
2022-10-01T02:18:29.464Z,10.55
2022-10-01T02:19:19.688Z,10.54
2022-10-01T02:20:02.179Z,10.55
2022-10-01T02:20:42.290Z,10.53
2022-10-01T02:21:21.491Z,10.55
2022-10-01T02:22:00.359Z,10.55
2022-10-01T02:22:42.204Z,10.54
2022-10-01T02:23:18.060Z,10.53
2022-10-01T02:23:59.077Z,10.55
2022-10-01T02:24:43.274Z,10.54
2022-10-01T02:25:18.526Z,10.54
2022-10-01T02:25:55.312Z,10.56
2022-10-01T02:26:29.728Z,10.55
2022-10-01T02:27:06.245Z,10.55
2022-10-01T02:27:50.929Z,10.56
2022-10-01T02:28:23.952Z,10.55
2022-10-01T02:29:00.768Z,10.55
2022-10-01T02:29:34.627Z,10.53
2022-10-01T02:30:09.505Z,10.56
2022-10-01T02:30:44.781Z,10.55
2022-10-01T02:31:18.472Z,10.55
2022-10-01T02:31:53.587Z,10.56
2022-10-01T02:32:26.232Z,10.56
2022-10-01T02:32:59.823Z,10.53
2022-10-01T02:33:35.500Z,10.57
2022-10-01T02:34:12.481Z,10.58
2022-10-01T02:34:45.928Z,10.58
2022-10-01T02:35:20.119Z,10.60
2022-10-01T02:35:53.759Z,10.60
2022-10-01T02:36:27.293Z,10.60
2022-10-01T02:37:01.500Z,10.60
2022-10-01T02:37:36.565Z,10.62
2022-10-01T02:38:09.467Z,10.60
2022-10-01T02:38:43.353Z,10.63
2022-10-01T02:39:17.357Z,10.63
2022-10-01T02:39:52.188Z,10.64
2022-10-01T02:40:28.268Z,10.63
2022-10-01T02:41:05.003Z,10.62
2022-10-01T02:41:36.968Z,10.62
2022-10-01T02:42:14.020Z,10.63
2022-10-01T02:42:51.272Z,10.64
2022-10-01T02:43:29.760Z,10.64
2022-10-01T02:44:14.981Z,10.64
2022-10-01T02:44:48.391Z,10.64
2022-10-01T02:45:23.478Z,10.65
2022-10-01T02:46:00.030Z,10.66
2022-10-01T02:46:42.245Z,10.66
2022-10-01T02:47:37.765Z,10.65
2022-10-01T02:48:12.213Z,10.66
2022-10-01T02:48:44.131Z,10.65
2022-10-01T02:49:15.858Z,10.65
2022-10-01T02:49:48.392Z,10.65
2022-10-01T02:50:21.547Z,10.67
2022-10-01T02:51:01.612Z,10.66
2022-10-01T02:51:43.338Z,10.65
2022-10-01T02:52:41.644Z,10.65
2022-10-01T02:53:21.292Z,10.64
2022-10-01T02:54:00.092Z,10.65
2022-10-01T02:54:38.351Z,10.66
2022-10-01T02:55:32.137Z,10.66
2022-10-01T02:56:05.625Z,10.67
2022-10-01T02:56:56.868Z,10.66
2022-10-01T02:57:28.844Z,10.66
2022-10-01T02:58:00.170Z,10.67
2022-10-01T02:58:31.771Z,10.66
2022-10-01T02:59:07.464Z,10.67
2022-10-01T02:59:38.826Z,10.65
2022-10-01T03:00:13.884Z,10.68
2022-10-01T03:00:45.226Z,10.68
2022-10-01T03:01:16.695Z,10.67
2022-10-01T03:01:48.296Z,10.68
2022-10-01T03:02:20.979Z,10.67
2022-10-01T03:02:52.556Z,10.66
2022-10-01T03:03:26.005Z,10.68
2022-10-01T03:03:57.314Z,10.68
2022-10-01T03:04:28.675Z,10.67
2022-10-01T03:05:00.449Z,10.69
2022-10-01T03:05:31.765Z,10.67
2022-10-01T03:06:03.198Z,10.70
2022-10-01T03:06:36.081Z,10.72
2022-10-01T03:07:07.575Z,10.70
2022-10-01T03:07:40.714Z,10.71
2022-10-01T03:08:12.064Z,10.70
2022-10-01T03:08:43.483Z,10.71
2022-10-01T03:09:14.788Z,10.72
2022-10-01T03:09:46.171Z,10.73
2022-10-01T03:10:17.652Z,10.72
2022-10-01T03:10:50.371Z,10.74
2022-10-01T03:11:21.885Z,10.73
2022-10-01T03:11:53.182Z,10.75
2022-10-01T03:12:24.800Z,10.74
2022-10-01T03:12:56.410Z,10.74
2022-10-01T03:13:27.705Z,10.73
2022-10-01T03:13:59.264Z,10.73
2022-10-01T03:14:32.297Z,10.75
2022-10-01T03:15:04.777Z,10.74
2022-10-01T03:15:36.187Z,10.74
2022-10-01T03:16:07.784Z,10.74
2022-10-01T03:16:39.152Z,10.76
2022-10-01T03:17:11.033Z,10.75
2022-10-01T03:17:42.573Z,10.78
2022-10-01T03:18:13.863Z,10.78
2022-10-01T03:18:45.151Z,10.76
2022-10-01T03:19:16.501Z,10.78
2022-10-01T03:19:48.154Z,10.78
2022-10-01T03:20:19.686Z,10.75
2022-10-01T03:20:51.182Z,10.80
2022-10-01T03:21:22.681Z,10.78
2022-10-01T03:21:56.338Z,10.78
2022-10-01T03:22:27.934Z,10.78
2022-10-01T03:22:59.234Z,10.79
2022-10-01T03:23:30.558Z,10.77
2022-10-01T03:24:02.012Z,10.80
2022-10-01T03:24:33.824Z,10.79
2022-10-01T03:25:05.529Z,10.80
2022-10-01T03:25:37.194Z,10.78
2022-10-01T03:26:08.641Z,10.78
2022-10-01T03:26:41.415Z,10.81
2022-10-01T03:27:12.751Z,10.82
2022-10-01T03:27:44.456Z,10.82
2022-10-01T03:28:16.058Z,10.82
2022-10-01T03:28:47.416Z,10.81
2022-10-01T03:29:18.717Z,10.85
2022-10-01T03:29:50.400Z,10.84
2022-10-01T03:30:22.103Z,10.83
2022-10-01T03:31:04.640Z,10.86
2022-10-01T03:31:37.641Z,10.83
2022-10-01T03:32:09.361Z,10.87
2022-10-01T03:32:40.911Z,10.82
2022-10-01T03:33:12.261Z,10.85
2022-10-01T03:33:43.670Z,10.86
2022-10-01T03:34:15.007Z,10.85
2022-10-01T03:34:46.384Z,10.88
2022-10-01T03:35:18.294Z,10.87
2022-10-01T03:35:49.605Z,10.86
2022-10-01T03:36:20.977Z,10.87
2022-10-01T03:36:52.699Z,10.87
2022-10-01T03:37:24.474Z,10.89
2022-10-01T03:37:55.897Z,10.90
2022-10-01T03:38:27.453Z,10.90
2022-10-01T03:38:59.068Z,10.90
2022-10-01T03:39:30.603Z,10.89
2022-10-01T03:40:02.281Z,10.90
2022-10-01T03:40:37.779Z,10.90
2022-10-01T03:41:09.140Z,10.91
2022-10-01T03:41:40.616Z,10.89
2022-10-01T03:42:11.987Z,10.89
2022-10-01T03:42:43.496Z,10.88
2022-10-01T03:43:14.805Z,10.89
2022-10-01T03:43:46.145Z,10.89
2022-10-01T03:44:17.717Z,10.92
2022-10-01T03:44:49.091Z,10.92
2022-10-01T03:45:20.427Z,10.91
2022-10-01T03:45:51.832Z,10.93
2022-10-01T03:46:23.238Z,10.90
2022-10-01T03:46:55.026Z,10.94
2022-10-01T03:47:26.333Z,10.90
2022-10-01T03:47:57.644Z,10.93
2022-10-01T03:48:29.671Z,10.95
2022-10-01T03:49:01.200Z,10.92
2022-10-01T03:49:33.756Z,10.94
2022-10-01T03:50:05.651Z,10.95
2022-10-01T03:50:36.973Z,10.91
2022-10-01T03:51:08.313Z,10.95
2022-10-01T03:51:40.153Z,10.95
2022-10-01T03:52:11.470Z,10.94
2022-10-01T03:52:44.841Z,10.96
2022-10-01T03:53:16.518Z,10.96
2022-10-01T03:53:47.950Z,10.98
2022-10-01T03:54:20.238Z,10.97
2022-10-01T03:54:51.557Z,10.98
2022-10-01T03:55:24.232Z,10.96
2022-10-01T03:55:55.658Z,11.00
2022-10-01T03:56:27.186Z,11.00
2022-10-01T03:56:59.270Z,10.99
2022-10-01T03:57:30.580Z,11.01
2022-10-01T03:58:02.171Z,11.00
2022-10-01T03:58:33.992Z,10.99
2022-10-01T03:59:05.333Z,11.02
2022-10-01T03:59:36.681Z,11.02
2022-10-01T04:00:09.635Z,11.01
2022-10-01T04:00:41.620Z,11.03
2022-10-01T04:01:13.070Z,11.04
2022-10-01T04:01:44.456Z,11.02
2022-10-01T04:02:15.897Z,11.05
2022-10-01T04:02:47.374Z,11.03
2022-10-01T04:03:18.885Z,11.06
2022-10-01T04:03:50.240Z,11.04
2022-10-01T04:04:21.618Z,11.03
2022-10-01T04:04:52.976Z,11.04
2022-10-01T04:05:25.699Z,11.07
2022-10-01T04:05:57.300Z,11.06
2022-10-01T04:06:28.598Z,11.05
2022-10-01T04:06:59.912Z,11.06
2022-10-01T04:07:31.213Z,11.07
2022-10-01T04:08:02.739Z,11.07
2022-10-01T04:08:34.049Z,11.07
2022-10-01T04:09:05.369Z,11.09
2022-10-01T04:09:37.497Z,11.07
2022-10-01T04:10:09.276Z,11.10
2022-10-01T04:10:41.482Z,11.08
2022-10-01T04:11:12.869Z,11.06
2022-10-01T04:11:44.400Z,11.10
2022-10-01T04:12:15.738Z,11.10
2022-10-01T04:12:47.121Z,11.10
2022-10-01T04:13:19.076Z,11.09
2022-10-01T04:13:50.752Z,11.12
2022-10-01T04:14:22.113Z,11.12
2022-10-01T04:14:53.429Z,11.08
2022-10-01T04:15:25.281Z,11.12
2022-10-01T04:15:56.716Z,11.10
2022-10-01T04:16:28.284Z,11.11
2022-10-01T04:17:00.234Z,11.13
2022-10-01T04:17:32.036Z,11.10
2022-10-01T04:18:05.634Z,11.11
2022-10-01T04:18:36.979Z,11.11
2022-10-01T04:19:08.311Z,11.15
2022-10-01T04:19:39.642Z,11.13
2022-10-01T04:20:11.015Z,11.13
2022-10-01T04:20:42.358Z,11.13
2022-10-01T04:21:15.472Z,11.11
2022-10-01T04:21:46.861Z,11.13
2022-10-01T04:22:18.422Z,11.12
2022-10-01T04:22:49.836Z,11.15
2022-10-01T04:23:22.417Z,11.12
2022-10-01T04:23:54.455Z,11.17
2022-10-01T04:24:25.802Z,11.16
2022-10-01T04:24:57.146Z,11.16
2022-10-01T04:25:28.682Z,11.17
2022-10-01T04:26:03.430Z,11.18
2022-10-01T04:26:34.940Z,11.16
2022-10-01T04:27:06.240Z,11.17
2022-10-01T04:27:39.040Z,11.16
2022-10-01T04:28:12.722Z,11.18
2022-10-01T04:28:46.326Z,11.19
2022-10-01T04:29:17.635Z,11.19
2022-10-01T04:29:48.949Z,11.20
2022-10-01T04:30:21.059Z,11.19
2022-10-01T04:31:12.415Z,11.16
2022-10-01T04:31:43.811Z,11.21
2022-10-01T04:32:17.021Z,11.20
2022-10-01T04:32:48.393Z,11.21
2022-10-01T04:33:19.834Z,11.25
2022-10-01T04:33:56.500Z,11.22
2022-10-01T04:34:47.782Z,11.23
2022-10-01T04:35:19.200Z,11.26
2022-10-01T04:35:50.489Z,11.26
2022-10-01T04:36:22.237Z,11.24
2022-10-01T04:36:53.573Z,11.26
2022-10-01T04:37:27.286Z,11.26
2022-10-01T04:38:01.873Z,11.26
2022-10-01T04:38:33.679Z,11.22
2022-10-01T04:39:05.207Z,11.21
2022-10-01T04:39:36.535Z,11.23
2022-10-01T04:40:09.569Z,11.24
2022-10-01T04:40:41.693Z,11.27
2022-10-01T04:41:14.742Z,11.27
2022-10-01T04:41:46.027Z,11.29
2022-10-01T04:42:17.612Z,11.27
2022-10-01T04:42:48.977Z,11.26
2022-10-01T04:43:20.302Z,11.31
2022-10-01T04:43:51.761Z,11.26
2022-10-01T04:44:23.313Z,11.27
2022-10-01T04:44:54.817Z,11.30
2022-10-01T04:45:26.735Z,11.27
2022-10-01T04:45:58.475Z,11.30
2022-10-01T04:46:30.400Z,11.32
2022-10-01T04:47:02.032Z,11.32
2022-10-01T04:47:37.360Z,11.31
2022-10-01T04:48:09.190Z,11.31
2022-10-01T04:48:41.072Z,11.32
2022-10-01T04:49:12.384Z,11.33
2022-10-01T04:49:43.744Z,11.32
2022-10-01T04:50:16.613Z,11.33
2022-10-01T04:50:47.917Z,11.32
2022-10-01T04:51:19.441Z,11.29
2022-10-01T04:51:50.752Z,11.32
2022-10-01T04:52:22.102Z,11.34
2022-10-01T04:52:54.137Z,11.34
2022-10-01T04:53:25.479Z,11.31
2022-10-01T04:53:56.848Z,11.34
2022-10-01T04:54:28.393Z,11.32
2022-10-01T04:54:59.891Z,11.35
2022-10-01T04:55:31.247Z,11.32
2022-10-01T04:56:02.738Z,11.34
2022-10-01T04:56:34.049Z,11.32
2022-10-01T04:57:05.446Z,11.35
2022-10-01T04:57:38.566Z,11.38
2022-10-01T04:58:10.399Z,11.39
2022-10-01T04:58:41.860Z,11.36
2022-10-01T04:59:13.214Z,11.39
2022-10-01T04:59:45.768Z,11.41
2022-10-01T05:00:20.558Z,11.39
2022-10-01T05:00:52.459Z,11.39
2022-10-01T05:01:23.868Z,11.42
2022-10-01T05:01:55.497Z,11.42
2022-10-01T05:02:26.960Z,11.42
2022-10-01T05:02:58.415Z,11.43
2022-10-01T05:03:29.800Z,11.43
2022-10-01T05:04:01.640Z,11.42
2022-10-01T05:04:32.951Z,11.45
2022-10-01T05:05:06.521Z,11.46
2022-10-01T05:05:38.852Z,11.46
2022-10-01T05:06:10.164Z,11.44
2022-10-01T05:06:41.683Z,11.46
2022-10-01T05:07:12.982Z,11.45
2022-10-01T05:07:44.608Z,11.45
2022-10-01T05:08:15.928Z,11.47
2022-10-01T05:08:48.761Z,11.46
2022-10-01T05:09:20.103Z,11.45
2022-10-01T05:09:51.650Z,11.46
2022-10-01T05:10:23.539Z,11.47
2022-10-01T05:10:55.059Z,11.49
2022-10-01T05:11:26.485Z,11.49
2022-10-01T05:11:57.917Z,11.49
2022-10-01T05:12:29.250Z,11.52
2022-10-01T05:13:02.336Z,11.49
2022-10-01T05:13:33.692Z,11.48
2022-10-01T05:14:05.335Z,11.53
2022-10-01T05:14:36.672Z,11.50
2022-10-01T05:15:09.141Z,11.52
2022-10-01T05:15:41.216Z,11.49
2022-10-01T05:16:12.585Z,11.53
2022-10-01T05:16:44.137Z,11.51
2022-10-01T05:17:17.165Z,11.51
2022-10-01T05:17:48.513Z,11.55
2022-10-01T05:18:19.828Z,11.55
2022-10-01T05:18:51.185Z,11.51
2022-10-01T05:19:25.287Z,11.52
2022-10-01T05:19:59.305Z,11.56
2022-10-01T05:20:30.895Z,11.56
2022-10-01T05:21:07.113Z,11.56
2022-10-01T05:21:38.480Z,11.52
2022-10-01T05:22:10.036Z,11.55
2022-10-01T05:22:41.625Z,11.55
2022-10-01T05:23:13.011Z,11.54
2022-10-01T05:23:44.404Z,11.55
2022-10-01T05:24:16.004Z,11.54
2022-10-01T05:24:47.811Z,11.53
2022-10-01T05:25:19.943Z,11.56
2022-10-01T05:25:51.271Z,11.54
2022-10-01T05:26:23.038Z,11.57
2022-10-01T05:26:54.444Z,11.56
2022-10-01T05:27:27.237Z,11.54
2022-10-01T05:28:05.664Z,11.55
2022-10-01T05:28:37.423Z,11.57
2022-10-01T05:29:09.010Z,11.57
2022-10-01T05:29:41.502Z,11.58
2022-10-01T05:30:14.751Z,11.59
2022-10-01T05:30:46.415Z,11.55
2022-10-01T05:31:18.895Z,11.54
2022-10-01T05:31:50.358Z,11.56
2022-10-01T05:32:21.939Z,11.57
2022-10-01T05:32:55.548Z,11.59
2022-10-01T05:33:27.988Z,11.59
2022-10-01T05:33:59.299Z,11.57
2022-10-01T05:34:30.778Z,11.59
2022-10-01T05:35:02.838Z,11.58
2022-10-01T05:35:34.245Z,11.58
2022-10-01T05:36:07.034Z,11.57
2022-10-01T05:36:38.491Z,11.58
2022-10-01T05:37:10.858Z,11.59
2022-10-01T05:37:42.174Z,11.59
2022-10-01T05:38:13.506Z,11.53
2022-10-01T05:38:48.249Z,11.55
2022-10-01T05:39:19.613Z,11.56
2022-10-01T05:39:50.944Z,11.58
2022-10-01T05:40:24.246Z,11.57
2022-10-01T05:40:55.615Z,11.53
2022-10-01T05:41:26.978Z,11.55
2022-10-01T05:42:02.617Z,11.55
2022-10-01T05:42:36.779Z,11.58
2022-10-01T05:43:09.274Z,11.58
2022-10-01T05:43:40.594Z,11.58
2022-10-01T05:44:11.927Z,11.57
2022-10-01T05:44:46.025Z,11.55
2022-10-01T05:45:19.565Z,11.53
2022-10-01T05:45:51.378Z,11.55
2022-10-01T05:46:22.760Z,11.53
2022-10-01T05:46:54.130Z,11.52
2022-10-01T05:47:25.616Z,11.52
2022-10-01T05:48:02.301Z,11.53
2022-10-01T05:48:36.941Z,11.54
2022-10-01T05:49:08.598Z,11.55
2022-10-01T05:49:42.820Z,11.55
2022-10-01T05:50:14.548Z,11.52
2022-10-01T05:50:46.529Z,11.54
2022-10-01T05:51:17.942Z,11.55
2022-10-01T05:51:49.573Z,11.55
2022-10-01T05:52:21.078Z,11.55
2022-10-01T05:52:54.569Z,11.51
2022-10-01T05:53:25.991Z,11.54
2022-10-01T05:53:59.018Z,11.48
2022-10-01T05:54:30.412Z,11.49
2022-10-01T05:55:01.732Z,11.51
2022-10-01T05:55:37.385Z,11.47
2022-10-01T05:56:09.489Z,11.51
2022-10-01T05:56:40.796Z,11.50
2022-10-01T05:57:12.232Z,11.50
2022-10-01T05:57:43.596Z,11.48
2022-10-01T05:58:15.996Z,11.50
2022-10-01T05:58:47.993Z,11.48
2022-10-01T05:59:19.296Z,11.48
2022-10-01T05:59:50.590Z,11.50
2022-10-01T06:00:22.866Z,11.49
2022-10-01T06:00:55.726Z,11.49
2022-10-01T06:01:27.434Z,11.49
2022-10-01T06:01:59.179Z,11.49
2022-10-01T06:02:30.751Z,11.47
2022-10-01T06:03:03.709Z,11.47
2022-10-01T06:03:35.989Z,11.47
2022-10-01T06:04:09.025Z,11.50
2022-10-01T06:04:41.385Z,11.51
2022-10-01T06:05:12.761Z,11.49
2022-10-01T06:05:44.624Z,11.50
2022-10-01T06:06:15.973Z,11.51
2022-10-01T06:06:47.379Z,11.51
2022-10-01T06:07:18.724Z,11.51
2022-10-01T06:07:50.531Z,11.53
2022-10-01T06:08:22.424Z,11.51
2022-10-01T06:08:54.384Z,11.52
2022-10-01T06:09:26.236Z,11.52
2022-10-01T06:09:57.517Z,11.52
2022-10-01T06:10:30.126Z,11.51
2022-10-01T06:11:02.286Z,11.52
2022-10-01T06:11:36.417Z,11.52
2022-10-01T06:12:09.692Z,11.50
2022-10-01T06:12:43.111Z,11.50
2022-10-01T06:13:20.345Z,11.49
2022-10-01T06:13:51.641Z,11.47
2022-10-01T06:14:22.967Z,11.47
2022-10-01T06:14:54.346Z,11.43
2022-10-01T06:15:25.676Z,11.48
2022-10-01T06:15:57.026Z,11.47
2022-10-01T06:16:28.607Z,11.48
2022-10-01T06:16:59.926Z,11.47
2022-10-01T06:17:31.257Z,11.47
2022-10-01T06:18:03.933Z,11.49
2022-10-01T06:18:35.241Z,11.49
2022-10-01T06:19:06.578Z,11.46
2022-10-01T06:19:37.883Z,11.48
2022-10-01T06:20:17.388Z,11.48
2022-10-01T06:20:48.774Z,11.52
2022-10-01T06:21:20.102Z,11.49
2022-10-01T06:21:51.931Z,11.53
2022-10-01T06:22:23.328Z,11.49
2022-10-01T06:22:56.259Z,11.52
2022-10-01T06:23:27.851Z,11.53
2022-10-01T06:23:59.249Z,11.54
2022-10-01T06:24:31.856Z,11.52
2022-10-01T06:25:03.521Z,11.56
2022-10-01T06:25:35.000Z,11.56
2022-10-01T06:26:06.568Z,11.56
2022-10-01T06:26:37.973Z,11.53
2022-10-01T06:27:10.325Z,11.55
2022-10-01T06:27:41.768Z,11.54
2022-10-01T06:28:14.485Z,11.56
2022-10-01T06:28:48.692Z,11.55
2022-10-01T06:29:20.044Z,11.56
2022-10-01T06:29:51.344Z,11.56
2022-10-01T06:30:22.797Z,11.56
2022-10-01T06:30:54.105Z,11.57
2022-10-01T06:31:25.438Z,11.57
2022-10-01T06:31:57.337Z,11.58
2022-10-01T06:32:31.636Z,11.54
2022-10-01T06:33:14.585Z,11.60
2022-10-01T06:33:45.931Z,11.59
2022-10-01T06:34:17.269Z,11.60
2022-10-01T06:34:48.575Z,11.59
2022-10-01T06:35:20.997Z,11.60
2022-10-01T06:35:52.618Z,11.62
2022-10-01T06:36:24.070Z,11.61
2022-10-01T06:36:55.382Z,11.62
2022-10-01T06:37:26.860Z,11.62
2022-10-01T06:37:58.952Z,11.65
2022-10-01T06:38:31.026Z,11.63
2022-10-01T06:39:02.419Z,11.65
2022-10-01T06:39:33.797Z,11.65
2022-10-01T06:40:06.253Z,11.65
2022-10-01T06:40:39.370Z,11.64
2022-10-01T06:41:14.046Z,11.67
2022-10-01T06:41:47.526Z,11.66
2022-10-01T06:42:18.849Z,11.67
2022-10-01T06:42:54.881Z,11.68
2022-10-01T06:43:29.997Z,11.68
2022-10-01T06:44:01.885Z,11.65
2022-10-01T06:44:33.210Z,11.67
2022-10-01T06:45:05.024Z,11.69
2022-10-01T06:45:39.175Z,11.65
2022-10-01T06:46:11.107Z,11.67
2022-10-01T06:46:54.038Z,11.68
2022-10-01T06:47:25.480Z,11.70
2022-10-01T06:48:03.566Z,11.72
2022-10-01T06:48:36.416Z,11.73
2022-10-01T06:49:08.082Z,11.73
2022-10-01T06:49:39.541Z,11.70
2022-10-01T06:50:11.310Z,11.74
2022-10-01T06:50:44.501Z,11.72
2022-10-01T06:51:15.842Z,11.74
2022-10-01T06:52:05.896Z,11.73
2022-10-01T06:52:49.697Z,11.75
2022-10-01T06:53:21.025Z,11.76
2022-10-01T06:53:52.375Z,11.76
2022-10-01T06:54:26.158Z,11.81
2022-10-01T06:55:00.147Z,11.82
2022-10-01T06:55:33.682Z,11.82
2022-10-01T06:56:06.922Z,11.85
2022-10-01T06:56:38.253Z,11.86
2022-10-01T06:57:09.611Z,11.84
2022-10-01T06:57:40.985Z,11.84
2022-10-01T06:58:20.984Z,11.89
2022-10-01T06:58:52.570Z,11.87
2022-10-01T06:59:24.112Z,11.91
2022-10-01T06:59:55.915Z,11.90
2022-10-01T07:00:29.609Z,11.92
2022-10-01T07:01:03.146Z,11.92
2022-10-01T07:01:36.496Z,11.93
2022-10-01T07:02:20.066Z,11.94
2022-10-01T07:02:51.945Z,11.95
2022-10-01T07:03:23.445Z,11.96
2022-10-01T07:03:55.366Z,11.99
2022-10-01T07:04:26.714Z,11.99
2022-10-01T07:05:01.514Z,12.01
2022-10-01T07:05:32.837Z,12.03
2022-10-01T07:06:05.717Z,12.02
2022-10-01T07:06:37.027Z,12.03
2022-10-01T07:07:08.332Z,12.07
2022-10-01T07:07:39.741Z,12.08
2022-10-01T07:08:11.586Z,12.08
2022-10-01T07:08:43.475Z,12.09
2022-10-01T07:09:14.808Z,12.10
2022-10-01T07:09:49.163Z,12.10
2022-10-01T07:10:21.986Z,12.17
2022-10-01T07:10:53.561Z,12.17
2022-10-01T07:11:25.195Z,12.18
2022-10-01T07:11:57.391Z,12.18
2022-10-01T07:12:31.549Z,12.23
2022-10-01T07:13:13.055Z,12.26
2022-10-01T07:13:44.547Z,12.27
2022-10-01T07:14:15.923Z,12.33
2022-10-01T07:14:49.834Z,12.35
2022-10-01T07:15:25.617Z,12.36
2022-10-01T07:15:57.125Z,12.35
2022-10-01T07:16:28.810Z,12.37
2022-10-01T07:17:00.553Z,12.42
2022-10-01T07:17:32.443Z,12.42
2022-10-01T07:18:04.803Z,12.48
2022-10-01T07:18:37.048Z,12.52
2022-10-01T07:19:08.533Z,12.55
2022-10-01T07:19:39.858Z,12.57